This is the latest recevied weather packets stored in our database for station/object Winterlng. If no packets are shown the sender has not sent any weather packets the latest 10 day(s).
| Time | Temp. | Humidity | Pressure | Rain* | Wind** | Luminosity | Snow |
|---|---|---|---|---|---|---|---|
| 1777779131 | 10° C | 71% | 0 hPa | 0 mm | - | - | - |
| 1777777331 | 10° C | 70% | 0 hPa | 0 mm | - | - | - |
| 1777775531 | 10° C | 69% | 0 hPa | 0 mm | - | - | - |
| 1777773731 | 9.44° C | 70% | 0 hPa | 0 mm | - | - | - |
| 1777771932 | 10° C | 69% | 0 hPa | 0 mm | - | - | - |
| 1777770132 | 10.56° C | 68% | 0 hPa | 0 mm | - | - | - |
| 1777768329 | 10.56° C | 66% | 0 hPa | 0 mm | - | - | - |
| 1777766530 | 10.56° C | 66% | 0 hPa | 0 mm | - | - | - |
| 1777764730 | 11.11° C | 65% | 0 hPa | 0 mm | - | - | - |
| 1777762930 | 11.67° C | 63% | 0 hPa | 0 mm | - | - | - |
| 1777761131 | 11.67° C | 63% | 0 hPa | 0 mm | - | - | - |
| 1777759330 | 12.22° C | 61% | 0 hPa | 0 mm | - | - | - |
| 1777757530 | 12.22° C | 61% | 0 hPa | 0 mm | - | - | - |
| 1777755729 | 12.78° C | 59% | 0 hPa | 0 mm | - | - | - |
| 1777753930 | 13.89° C | 56% | 0 hPa | 0 mm | - | - | - |
| 1777752130 | 15° C | 53% | 0 hPa | 0 mm | - | - | - |
| 1777750335 | 16.67° C | 49% | 0 hPa | 0 mm | - | - | - |
| 1777748537 | 18.33° C | 43% | 0 hPa | 0 mm | - | - | - |
| 1777746730 | 19.44° C | 40% | 0 hPa | 0 mm | - | - | - |
| 1777744931 | 20.56° C | 38% | 0 hPa | 0 mm | - | - | - |
| 1777743130 | 21.11° C | 37% | 0 hPa | 0 mm | - | - | - |
| 1777741330 | 21.67° C | 35% | 0 hPa | 0 mm | - | - | - |
| 1777739530 | 21.67° C | 34% | 0 hPa | 0 mm | - | - | - |
| 1777737733 | 22.22° C | 34% | 0 hPa | 0 mm | - | - | - |
| 1777735931 | 22.78° C | 33% | 0 hPa | 0 mm | - | - | - |
* Rain since midnight (hover to see other rain measurements)
** Current wind speed in m/s (hover to see current wind gust speed)